Time;durP1;ratioP1;P1;durP2;ratioP2;P2;SDS_P1;SDS_P2;PMS_P1;PMS_P2;Temp;Humidity;BMP_temperature;BMP_pressure;BME280_temperature;BME280_humidity;BME280_pressure;Samples;Min_cycle;Max_cycle;Signal;HPM_P1;HPM_P2
2023/10/09 00:01:13;;;;;;;2.88;0.73;;;;;;;11.45;65.99;101741.78;5092648;28;20057;-74
2023/10/09 00:03:50;;;;;;;3.67;0.77;;;;;;;11.60;65.92;101754.47;5091188;28;20027;-74
2023/10/09 00:06:15;;;;;;;1.10;0.63;;;;;;;11.66;65.69;101751.88;5091391;28;20028;-73
2023/10/09 00:08:44;;;;;;;3.08;0.60;;;;;;;11.70;65.53;101744.25;5074770;28;20036;-73
2023/10/09 00:11:14;;;;;;;1.70;0.77;;;;;;;11.70;65.60;101734.31;5075059;28;20032;-74
2023/10/09 00:13:48;;;;;;;2.05;0.60;;;;;;;11.77;65.74;101735.25;5092553;28;20040;-74
2023/10/09 00:16:23;;;;;;;2.95;0.50;;;;;;;11.82;65.12;101729.31;5092312;28;20518;-74
2023/10/09 00:18:49;;;;;;;1.77;0.60;;;;;;;11.84;65.03;101729.97;5092035;28;20036;-74
2023/10/09 00:21:21;;;;;;;1.73;0.70;;;;;;;11.87;65.30;101723.38;5074328;28;20032;-74
2023/10/09 00:23:55;;;;;;;4.90;0.50;;;;;;;11.87;65.08;101710.72;5091195;28;20032;-74
2023/10/09 00:26:21;;;;;;;2.38;0.70;;;;;;;11.88;65.40;101703.47;5094549;28;20031;-73
2023/10/09 00:28:47;;;;;;;1.35;0.75;;;;;;;11.71;65.84;101678.53;5099086;28;20490;-74
2023/10/09 00:31:16;;;;;;;1.88;0.60;;;;;;;11.83;66.12;101695.09;5092707;28;20478;-74
2023/10/09 00:33:45;;;;;;;1.10;0.50;;;;;;;11.84;66.58;101680.56;5091488;28;20035;-74
2023/10/09 00:36:18;;;;;;;3.42;1.15;;;;;;;11.85;66.48;101693.88;5092115;28;20032;-73
2023/10/09 00:38:50;;;;;;;1.23;0.50;;;;;;;11.87;66.38;101678.38;5090949;28;20032;-74
2023/10/09 00:41:24;;;;;;;2.83;0.70;;;;;;;11.90;66.34;101679.88;5091159;28;20035;-73
2023/10/09 00:43:51;;;;;;;1.52;0.60;;;;;;;11.89;66.24;101670.13;5099834;28;20036;-73
2023/10/09 00:48:48;;;;;;;1.20;0.60;;;;;;;11.91;66.38;101663.47;5091155;28;20021;-74
2023/10/09 00:51:16;;;;;;;1.42;0.75;;;;;;;11.94;66.40;101671.19;5074447;28;20034;-74
2023/10/09 00:53:50;;;;;;;4.97;0.98;;;;;;;11.95;66.19;101666.63;5090628;28;20461;-73
2023/10/09 00:56:28;;;;;;;3.13;0.90;;;;;;;11.93;66.62;101663.31;5090776;28;20035;-73
2023/10/09 00:58:59;;;;;;;1.95;0.70;;;;;;;11.80;66.69;101641.53;5091818;28;20028;-73
2023/10/09 01:01:34;;;;;;;2.97;0.63;;;;;;;11.82;66.80;101643.03;5092004;28;20027;-74
2023/10/09 01:04:14;;;;;;;5.13;0.70;;;;;;;11.87;66.55;101662.19;5091245;28;20050;-74
2023/10/09 01:06:44;;;;;;;4.10;0.68;;;;;;;11.81;66.92;101651.28;5092689;28;20033;-74
2023/10/09 01:09:14;;;;;;;3.22;0.88;;;;;;;11.83;67.42;101649.25;5078377;28;20032;-74
2023/10/09 01:14:24;;;;;;;2.22;0.80;;;;;;;11.78;67.42;101636.31;5092222;28;20051;-74
2023/10/09 01:16:53;;;;;;;1.40;0.70;;;;;;;11.73;67.88;101634.19;5092776;28;20487;-73
2023/10/09 01:19:21;;;;;;;3.30;0.77;;;;;;;11.70;68.11;101626.47;5094585;28;20066;-74
2023/10/09 01:21:48;;;;;;;5.65;0.80;;;;;;;11.66;68.51;101619.78;5095118;28;20032;-74
2023/10/09 01:24:15;;;;;;;1.45;0.63;;;;;;;11.63;68.81;101614.75;5094383;28;20494;-74
2023/10/09 01:26:44;;;;;;;3.75;0.63;;;;;;;11.59;68.79;101612.59;5094376;28;20047;-74
2023/10/09 01:29:30;;;;;;;3.38;0.73;;;;;;;11.58;68.80;101610.94;5095166;28;20032;-74
2023/10/09 01:32:00;;;;;;;2.40;0.68;;;;;;;11.52;69.18;101615.19;5110203;28;20032;-73
2023/10/09 01:34:38;;;;;;;2.42;0.73;;;;;;;11.49;69.17;101602.13;5094227;28;20028;-73
2023/10/09 01:37:10;;;;;;;2.55;0.70;;;;;;;11.47;69.69;101598.75;5094553;28;20027;-73
2023/10/09 01:39:42;;;;;;;8.15;0.80;;;;;;;11.31;69.59;101580.09;5100441;28;20032;-74
2023/10/09 01:42:09;;;;;;;3.78;0.50;;;;;;;11.40;69.94;101592.44;5095085;28;20487;-74
2023/10/09 01:44:34;;;;;;;4.13;0.70;;;;;;;11.35;70.14;101584.91;5077110;28;20032;-74
2023/10/09 01:47:07;;;;;;;2.38;0.80;;;;;;;11.33;70.06;101573.50;5094138;28;20036;-74
2023/10/09 01:49:43;;;;;;;2.55;0.60;;;;;;;11.28;70.68;101579.41;5095287;28;20028;-73
2023/10/09 01:52:09;;;;;;;2.30;0.70;;;;;;;11.24;70.98;101577.28;5100885;28;20052;-74
2023/10/09 01:54:40;;;;;;;2.55;0.70;;;;;;;11.20;70.71;101582.22;5095260;28;20024;-74
2023/10/09 01:57:11;;;;;;;2.95;0.60;;;;;;;11.14;71.37;101577.56;5093884;28;20035;-74
2023/10/09 01:59:38;;;;;;;4.55;1.00;;;;;;;11.08;71.96;101577.44;5095072;28;20020;-74
2023/10/09 02:02:33;;;;;;;2.67;0.73;;;;;;;10.63;72.24;101510.06;5093243;28;20151;-74
2023/10/09 02:05:05;;;;;;;2.55;0.73;;;;;;;11.08;72.01;101567.50;5103625;28;20020;-73
2023/10/09 02:07:40;;;;;;;1.67;0.52;;;;;;;10.96;72.28;101558.19;5105788;28;20032;-74
2023/10/09 02:10:11;;;;;;;2.35;0.90;;;;;;;11.04;72.88;101571.59;5093748;28;20032;-74
2023/10/09 02:12:37;;;;;;;3.20;0.90;;;;;;;11.03;72.69;101567.25;5077417;28;20065;-73
2023/10/09 02:15:15;;;;;;;3.10;0.70;;;;;;;10.98;73.13;101562.38;5093371;28;20051;-74
2023/10/09 02:17:52;;;;;;;2.47;0.55;;;;;;;10.98;73.28;101564.25;5078128;28;20044;-74
2023/10/09 02:20:28;;;;;;;3.38;0.70;;;;;;;10.98;73.65;101566.94;5094597;28;20031;-74
2023/10/09 02:22:55;;;;;;;1.40;0.70;;;;;;;10.96;73.60;101574.34;5077889;28;20032;-74
2023/10/09 02:25:23;;;;;;;2.65;0.70;;;;;;;10.96;74.02;101574.34;5098387;28;20008;-74
2023/10/09 02:27:56;;;;;;;4.22;0.70;;;;;;;10.96;73.90;101560.88;5104088;28;20028;-73
2023/10/09 02:30:27;;;;;;;1.45;0.50;;;;;;;10.97;74.23;101560.72;5105664;28;20032;-73
2023/10/09 02:33:06;;;;;;;3.28;1.00;;;;;;;10.91;74.96;101544.47;5101159;28;20031;-74
2023/10/09 02:35:37;;;;;;;3.35;1.00;;;;;;;10.94;74.51;101554.88;5097405;28;20114;-74
2023/10/09 02:38:06;;;;;;;1.40;0.63;;;;;;;10.94;75.10;101549.47;5078645;28;20410;-74
2023/10/09 02:40:39;;;;;;;1.75;0.70;;;;;;;10.93;75.36;101537.88;5097204;28;20031;-74
2023/10/09 02:43:04;;;;;;;2.95;0.73;;;;;;;10.94;75.71;101541.41;5084343;28;20028;-74
2023/10/09 02:45:35;;;;;;;7.20;0.80;;;;;;;10.95;75.65;101532.28;5100276;28;20050;-73
2023/10/09 02:48:08;;;;;;;4.55;0.88;;;;;;;10.92;76.12;101527.28;5091657;28;20063;-74
2023/10/09 02:50:38;;;;;;;3.38;0.90;;;;;;;10.89;76.11;101517.69;5094219;28;20032;-73
2023/10/09 02:53:09;;;;;;;2.70;0.75;;;;;;;10.92;76.58;101520.03;5076648;28;20256;-73
2023/10/09 02:55:38;;;;;;;2.58;0.70;;;;;;;10.93;76.61;101521.72;5093813;28;20525;-74
2023/10/09 02:58:10;;;;;;;2.63;0.90;;;;;;;10.91;76.84;101518.38;5092565;28;20036;-74
2023/10/09 03:00:36;;;;;;;4.88;1.02;;;;;;;10.85;77.12;101519.09;5109280;28;20103;-73
2023/10/09 03:03:06;;;;;;;3.88;0.80;;;;;;;10.74;76.82;101508.78;5092050;28;20085;-74
2023/10/09 03:05:32;;;;;;;4.28;0.80;;;;;;;10.75;77.06;101513.97;5076028;28;20515;-74
2023/10/09 03:07:59;;;;;;;4.38;0.90;;;;;;;10.82;77.49;101527.53;5092062;28;20115;-74
2023/10/09 03:10:25;;;;;;;2.78;0.77;;;;;;;10.81;77.44;101523.19;5093413;28;20088;-74
2023/10/09 03:12:53;;;;;;;4.68;0.98;;;;;;;10.78;78.04;101513.59;5092268;28;20043;-73
2023/10/09 03:15:22;;;;;;;2.67;0.80;;;;;;;10.69;78.38;101500.41;5092089;28;20024;-74
2023/10/09 03:17:48;;;;;;;2.67;0.82;;;;;;;10.77;78.14;101511.13;5094142;28;20475;-74
2023/10/09 03:20:17;;;;;;;4.60;0.85;;;;;;;10.78;77.93;101500.16;5075264;28;20035;-74
2023/10/09 03:22:44;;;;;;;3.25;1.00;;;;;;;10.78;78.37;101497.47;5092834;28;20028;-75
2023/10/09 03:25:16;;;;;;;6.80;0.90;;;;;;;10.80;78.67;101490.03;5094646;28;20073;-74
2023/10/09 03:27:44;;;;;;;2.25;0.73;;;;;;;10.81;78.67;101480.94;5086082;28;20109;-74
2023/10/09 03:30:16;;;;;;;4.57;0.70;;;;;;;10.83;78.45;101470.00;5075291;28;20122;-74
2023/10/09 03:32:43;;;;;;;1.88;0.70;;;;;;;10.84;78.88;101478.91;5091763;28;20486;-74
2023/10/09 03:35:13;;;;;;;3.85;0.85;;;;;;;10.75;78.62;101464.69;5092748;28;20577;-74
2023/10/09 03:37:39;;;;;;;2.97;0.88;;;;;;;10.80;78.60;101479.28;5091834;28;20028;-74
2023/10/09 03:40:07;;;;;;;1.73;0.75;;;;;;;10.62;78.78;101448.34;5091259;28;20031;-74
2023/10/09 03:42:36;;;;;;;2.47;0.70;;;;;;;10.71;78.93;101466.91;5091294;28;20020;-74
2023/10/09 03:45:12;;;;;;;2.95;0.88;;;;;;;10.68;79.25;101469.13;5091194;28;20031;-74
2023/10/09 03:47:37;;;;;;;4.05;0.82;;;;;;;10.65;79.30;101464.13;5091411;28;20214;-74
2023/10/09 03:50:20;;;;;;;1.13;0.70;;;;;;;10.60;79.67;101471.94;5092717;28;20036;-74
2023/10/09 03:52:46;;;;;;;2.40;0.82;;;;;;;10.62;79.28;101467.19;5091586;28;20059;-74
2023/10/09 03:55:12;;;;;;;4.57;0.80;;;;;;;10.63;79.79;101466.16;5074284;28;20028;-74
2023/10/09 03:57:39;;;;;;;3.70;0.80;;;;;;;10.62;79.73;101465.31;5074682;28;20046;-74
2023/10/09 04:00:27;;;;;;;3.20;0.80;;;;;;;10.63;79.86;101455.38;5092797;28;20039;-74
2023/10/09 04:02:50;;;;;;;2.55;0.60;;;;;;;10.63;79.64;101450.88;5092535;28;20043;-74
2023/10/09 04:05:16;;;;;;;2.10;0.70;;;;;;;10.57;79.81;101454.28;5092633;28;20019;-74
2023/10/09 04:07:41;;;;;;;1.10;0.50;;;;;;;10.53;79.66;101450.28;5091460;28;20440;-73
2023/10/09 04:12:52;;;;;;;5.05;0.70;;;;;;;10.51;79.91;101465.78;5076864;28;20141;-73
2023/10/09 04:15:23;;;;;;;5.45;0.80;;;;;;;10.48;80.52;101461.59;5094184;28;20115;-74
2023/10/09 04:17:51;;;;;;;2.63;0.68;;;;;;;10.49;80.54;101465.09;5075165;28;20046;-74
2023/10/09 04:22:51;;;;;;;4.53;0.77;;;;;;;10.42;80.64;101458.78;5092534;28;20043;-74
2023/10/09 04:25:28;;;;;;;5.85;1.25;;;;;;;10.51;80.90;101480.06;5104923;28;20008;-74
2023/10/09 04:30:42;;;;;;;3.78;0.80;;;;;;;10.47;80.85;101478.75;5097091;28;20039;-73
2023/10/09 04:41:51;;;;;;;2.30;0.82;;;;;;;10.45;81.46;101475.41;5091392;28;20047;-73
2023/10/09 04:46:55;;;;;;;3.53;0.73;;;;;;;10.41;81.60;101470.56;5091940;28;20047;-73
2023/10/09 04:49:27;;;;;;;4.22;0.73;;;;;;;10.38;81.61;101468.25;5075666;28;20028;-73
2023/10/09 04:52:09;;;;;;;2.42;0.70;;;;;;;10.40;81.84;101472.44;5075939;28;20063;-74
2023/10/09 04:55:02;;;;;;;1.25;0.68;;;;;;;10.42;82.33;101466.84;5094077;28;20028;-75
2023/10/09 04:57:26;;;;;;;7.68;0.70;;;;;;;10.49;82.43;101467.78;5094512;28;20040;-74
2023/10/09 04:59:52;;;;;;;2.65;0.73;;;;;;;10.49;82.59;101449.78;5077682;28;20028;-74
2023/10/09 05:02:20;;;;;;;3.08;0.80;;;;;;;10.56;82.41;101461.53;5092583;28;20073;-74
2023/10/09 05:05:01;;;;;;;1.73;0.60;;;;;;;10.60;82.67;101453.91;5098709;28;20052;-74
2023/10/09 05:08:19;;;;;;;2.67;0.60;;;;;;;10.78;83.03;101467.00;5105601;28;20028;-74
2023/10/09 05:10:17;;;;;;;1.63;0.70;;;;;;;10.86;83.16;101483.09;5089425;28;20111;-73
2023/10/09 05:12:56;;;;;;;5.57;0.80;;;;;;;10.93;82.86;101469.72;5076799;28;20119;-73
2023/10/09 05:15:29;;;;;;;2.85;1.08;;;;;;;11.01;82.74;101485.78;5092819;28;20025;-73
2023/10/09 05:17:56;;;;;;;2.42;0.70;;;;;;;11.10;82.59;101476.59;5099142;28;20028;-72
2023/10/09 05:22:58;;;;;;;2.50;0.63;;;;;;;11.17;83.34;101468.59;5077110;28;20470;-74
2023/10/09 05:28:31;;;;;;;2.05;0.70;;;;;;;11.24;82.81;101459.59;5094281;28;20062;-73
2023/10/09 05:33:47;;;;;;;3.33;0.93;;;;;;;11.42;82.21;101453.81;5075206;28;20088;-73
2023/10/09 05:38:58;;;;;;;1.33;0.60;;;;;;;11.52;81.93;101453.50;5095180;28;20034;-73
2023/10/09 05:51:10;;;;;;;1.85;0.80;;;;;;;11.76;81.66;101445.06;5073960;28;20505;-74
2023/10/09 06:03:25;;;;;;;3.00;0.70;;;;;;;12.06;80.25;101444.16;5096521;28;20077;-73
2023/10/09 06:08:26;;;;;;;2.67;1.00;;;;;;;12.13;79.43;101447.75;5093783;28;20106;-73
2023/10/09 06:11:38;;;;;;;1.60;0.60;;;;;;;12.12;78.71;101432.56;5095393;28;20020;-72
2023/10/09 06:24:18;;;;;;;4.35;0.82;;;;;;;12.55;77.30;101430.66;5094412;28;20105;-73
2023/10/09 06:30:27;;;;;;;4.47;1.00;;;;;;;12.63;77.28;101427.78;5093946;28;20202;-73
2023/10/09 06:34:57;;;;;;;2.80;0.82;;;;;;;12.91;77.41;101445.81;5076115;28;20043;-72
2023/10/09 06:47:53;;;;;;;3.63;0.93;;;;;;;13.08;76.48;101425.56;5100379;28;20028;-73
2023/10/09 06:52:57;;;;;;;4.90;0.90;;;;;;;13.32;76.08;101448.56;5096645;28;20040;-73
2023/10/09 06:55:35;;;;;;;2.00;0.85;;;;;;;13.19;75.69;101416.06;5093411;28;20032;-72
2023/10/09 06:58:09;;;;;;;2.90;0.90;;;;;;;13.48;75.49;101435.75;5092325;28;20036;-72
2023/10/09 07:01:19;;;;;;;5.95;1.00;;;;;;;13.51;75.39;101447.00;5092195;28;20024;-73
2023/10/09 07:03:59;;;;;;;2.35;1.00;;;;;;;13.60;74.65;101440.34;5093122;28;20036;-72
2023/10/09 07:14:07;;;;;;;3.60;0.80;;;;;;;13.94;72.83;101446.69;5075804;28;20038;-73
2023/10/09 07:16:38;;;;;;;3.75;0.68;;;;;;;14.01;72.09;101444.81;5075090;28;20040;-72
2023/10/09 07:19:19;;;;;;;1.48;0.70;;;;;;;14.07;71.90;101435.03;5091762;28;20028;-72
2023/10/09 07:21:53;;;;;;;2.25;0.80;;;;;;;14.17;70.96;101442.72;5061789;28;20062;-73
2023/10/09 07:24:24;;;;;;;4.38;0.70;;;;;;;14.15;70.13;101448.38;5091577;28;20093;-73
2023/10/09 07:26:53;;;;;;;2.13;0.60;;;;;;;14.24;69.73;101435.47;5091576;28;20035;-73
2023/10/09 07:29:22;;;;;;;2.28;0.63;;;;;;;14.28;69.23;101452.97;5078642;28;20035;-73
2023/10/09 07:31:57;;;;;;;1.98;0.60;;;;;;;14.26;68.41;101447.75;5096208;28;20115;-73
2023/10/09 07:34:52;;;;;;;2.50;0.60;;;;;;;14.40;67.50;101456.69;5094434;28;20433;-72
2023/10/09 07:37:37;;;;;;;2.28;0.65;;;;;;;14.56;66.47;101439.22;5093371;28;20058;-73
2023/10/09 07:40:08;;;;;;;2.88;0.77;;;;;;;14.63;65.64;101460.88;5093841;28;20505;-73
2023/10/09 07:43:04;;;;;;;2.17;0.50;;;;;;;14.74;65.41;101462.97;5075507;28;20028;-73
2023/10/09 07:48:04;;;;;;;1.45;0.50;;;;;;;14.54;62.14;101469.22;5091419;28;20533;-73
2023/10/09 07:50:40;;;;;;;2.63;0.45;;;;;;;14.69;61.42;101458.16;5091075;28;20027;-73
2023/10/09 07:53:19;;;;;;;1.27;0.32;;;;;;;14.38;61.45;101450.66;5074493;28;20139;-73
2023/10/09 07:55:55;;;;;;;3.65;0.50;;;;;;;14.46;62.64;101452.31;5091093;28;20470;-73
2023/10/09 07:58:25;;;;;;;1.38;0.40;;;;;;;14.67;62.17;101454.84;5092215;28;20032;-72
2023/10/09 08:01:07;;;;;;;1.10;0.40;;;;;;;14.70;61.28;101457.16;5092162;28;20028;-73
2023/10/09 08:03:36;;;;;;;1.10;0.45;;;;;;;14.74;60.95;101461.09;5090836;28;20059;-73
2023/10/09 08:09:45;;;;;;;;;;;;;;;14.67;61.75;101454.00;5092008;28;20042;-73
2023/10/09 08:17:11;;;;;;;2.35;0.50;;;;;;;14.46;62.07;101460.44;5093527;28;20039;-73
2023/10/09 08:19:51;;;;;;;1.52;0.50;;;;;;;14.60;62.36;101472.13;5076352;28;20032;-73
2023/10/09 08:24:55;;;;;;;3.22;0.43;;;;;;;14.45;61.99;101473.16;5089421;28;20071;-73
2023/10/09 08:27:54;;;;;;;1.60;0.60;;;;;;;14.29;62.87;101462.75;5089866;28;20032;-73
2023/10/09 08:32:40;;;;;;;1.67;0.50;;;;;;;14.24;63.76;101471.50;5098826;28;20398;-73
2023/10/09 08:35:29;;;;;;;1.13;0.30;;;;;;;14.30;63.72;101473.38;5096684;28;20039;-73
2023/10/09 08:37:52;;;;;;;3.17;0.55;;;;;;;14.24;63.58;101466.06;5091803;28;20487;-73
2023/10/09 08:40:19;;;;;;;1.67;0.50;;;;;;;14.29;63.72;101477.09;5090986;28;20491;-73
2023/10/09 08:42:52;;;;;;;1.60;0.55;;;;;;;14.02;64.06;101451.88;5090449;28;20028;-73
2023/10/09 08:45:24;;;;;;;1.38;0.52;;;;;;;14.10;64.15;101473.34;5090291;28;20031;-73
2023/10/09 08:47:54;;;;;;;1.80;0.50;;;;;;;14.12;64.71;101472.31;5088481;28;20498;-73
2023/10/09 08:50:22;;;;;;;2.65;0.52;;;;;;;14.12;65.05;101475.00;5088590;28;20508;-73
2023/10/09 08:52:49;;;;;;;2.33;0.55;;;;;;;14.15;65.28;101474.59;5090123;28;20044;-73
2023/10/09 08:55:17;;;;;;;1.48;0.60;;;;;;;14.07;65.58;101479.19;5096279;28;20027;-73
2023/10/09 08:57:46;;;;;;;4.60;0.40;;;;;;;14.10;64.42;101478.78;5092110;28;20036;-73
2023/10/09 09:00:23;;;;;;;2.08;0.60;;;;;;;14.05;64.58;101475.00;5072194;28;20534;-73
2023/10/09 09:02:50;;;;;;;0.73;0.40;;;;;;;14.07;64.00;101467.50;5072205;28;20039;-73
2023/10/09 09:05:23;;;;;;;2.25;0.60;;;;;;;14.12;64.63;101478.53;5088590;28;20502;-73
2023/10/09 09:07:49;;;;;;;1.10;0.60;;;;;;;14.11;63.82;101476.88;5089002;28;20028;-73
2023/10/09 09:10:18;;;;;;;3.30;0.57;;;;;;;14.04;63.88;101449.81;5090391;28;20028;-73
2023/10/09 09:12:44;;;;;;;1.67;0.52;;;;;;;14.08;63.74;101474.59;5089597;28;20024;-73
2023/10/09 09:15:20;;;;;;;2.00;0.63;;;;;;;13.82;63.04;101427.50;5091425;28;20120;-73
2023/10/09 09:17:49;;;;;;;1.88;0.60;;;;;;;14.17;63.64;101467.94;5091760;28;20482;-73
2023/10/09 09:20:39;;;;;;;1.95;0.60;;;;;;;14.17;63.59;101475.22;5090627;28;20505;-73
2023/10/09 09:23:09;;;;;;;1.38;0.50;;;;;;;14.17;64.07;101453.56;5091619;28;20074;-73
2023/10/09 09:25:45;;;;;;;1.95;0.65;;;;;;;14.26;63.02;101465.84;5090383;28;20030;-73
2023/10/09 09:28:21;;;;;;;1.48;0.52;;;;;;;14.40;62.40;101470.22;5090267;28;20081;-73
2023/10/09 09:30:50;;;;;;;1.98;0.60;;;;;;;14.42;62.25;101478.16;5090555;28;20471;-73
2023/10/09 09:33:26;;;;;;;2.70;0.50;;;;;;;14.42;62.30;101484.41;5090335;28;20032;-73
2023/10/09 09:36:02;;;;;;;1.20;0.43;;;;;;;14.64;61.64;101484.25;5091376;28;20025;-73
2023/10/09 09:38:33;;;;;;;2.03;0.77;;;;;;;14.70;61.39;101480.66;5100393;28;20050;-73
2023/10/09 09:41:02;;;;;;;4.30;0.50;;;;;;;14.48;61.10;101491.69;5094787;28;20043;-73
2023/10/09 09:43:35;;;;;;;0.95;0.50;;;;;;;14.50;60.56;101495.06;5083092;28;20055;-73
2023/10/09 09:46:03;;;;;;;1.00;0.40;;;;;;;14.44;61.23;101474.22;5104121;28;20051;-73
2023/10/09 09:48:32;;;;;;;3.80;0.60;;;;;;;14.34;61.90;101495.44;5089506;28;20103;-73
2023/10/09 09:50:57;;;;;;;1.70;0.50;;;;;;;14.19;60.81;101468.56;5101868;28;20214;-72
2023/10/09 09:53:24;;;;;;;1.95;0.45;;;;;;;14.39;60.88;101481.28;5077137;28;20142;-73
2023/10/09 09:55:57;;;;;;;1.60;0.50;;;;;;;14.52;59.92;101492.97;5093667;28;20028;-73
2023/10/09 09:58:41;;;;;;;1.73;0.63;;;;;;;14.83;60.42;101496.91;5094289;28;20069;-73
2023/10/09 10:01:24;;;;;;;1.30;0.40;;;;;;;14.79;59.58;101493.78;5094815;28;20020;-73
2023/10/09 10:04:04;;;;;;;1.65;0.55;;;;;;;14.46;59.54;101488.34;5095305;28;20106;-73
2023/10/09 10:06:32;;;;;;;1.80;0.60;;;;;;;14.61;60.47;101506.31;5093168;28;20073;-73
2023/10/09 10:08:58;;;;;;;1.58;0.43;;;;;;;14.50;59.88;101477.94;5096459;28;20103;-73
2023/10/09 10:11:46;;;;;;;1.40;0.65;;;;;;;14.96;58.66;101482.50;5076614;28;20559;-73
2023/10/09 10:14:31;;;;;;;1.00;0.45;;;;;;;14.72;58.46;101497.56;5093359;28;20517;-73
2023/10/09 10:17:00;;;;;;;;;;;;;;;14.75;58.43;101507.97;5098917;28;20099;-73
2023/10/09 10:20:01;;;;;;;2.17;0.50;;;;;;;14.68;59.77;101518.81;5107264;28;19929;-73
2023/10/09 10:22:28;;;;;;;3.60;0.63;;;;;;;14.53;60.24;101515.47;5099877;28;20035;-73
2023/10/09 10:24:57;;;;;;;1.77;0.65;;;;;;;14.53;60.37;101512.75;5093516;28;20032;-73
2023/10/09 10:27:26;;;;;;;1.45;0.50;;;;;;;14.49;60.45;101525.84;5093163;28;20098;-73
2023/10/09 10:30:33;;;;;;;2.08;0.60;;;;;;;14.52;60.88;101513.81;5076256;28;20518;-73
2023/10/09 10:33:09;;;;;;;2.13;0.50;;;;;;;14.82;61.01;101510.69;5074894;28;20050;-73
2023/10/09 10:35:46;;;;;;;1.92;0.55;;;;;;;14.97;60.30;101508.59;5101070;28;20028;-73
2023/10/09 10:38:55;;;;;;;2.90;0.50;;;;;;;14.94;60.73;101522.56;5082338;28;20436;-73
2023/10/09 10:41:22;;;;;;;2.08;0.60;;;;;;;14.57;60.53;101495.91;5095169;28;20375;-73
2023/10/09 10:51:39;;;;;;;2.90;0.68;;;;;;;14.89;59.06;101506.06;5092873;28;20510;-73
2023/10/09 10:56:51;;;;;;;1.38;0.77;;;;;;;15.08;58.72;101507.09;5093219;28;20501;-73
2023/10/09 10:59:27;;;;;;;1.88;0.88;;;;;;;15.11;59.00;101503.97;5092167;28;20035;-73
2023/10/09 11:01:58;;;;;;;2.35;0.60;;;;;;;15.21;58.97;101507.06;5092316;28;20085;-73
2023/10/09 11:07:12;;;;;;;2.38;0.70;;;;;;;15.22;57.74;101487.03;5097265;28;20028;-73
2023/10/09 11:18:24;;;;;;;1.33;0.60;;;;;;;15.18;57.76;101510.19;5068199;28;20318;-73
2023/10/09 11:28:57;;;;;;;2.92;0.60;;;;;;;15.08;56.83;101501.69;5054995;28;20520;-73
2023/10/09 11:31:22;;;;;;;1.65;0.45;;;;;;;15.03;57.44;101480.59;5069359;28;20150;-73
2023/10/09 11:33:51;;;;;;;0.95;0.50;;;;;;;14.88;57.75;101497.13;5070148;28;20059;-73
2023/10/09 11:36:35;;;;;;;1.23;0.55;;;;;;;14.93;57.62;101501.91;5056143;28;20075;-73
2023/10/09 11:39:17;;;;;;;2.25;0.70;;;;;;;15.16;57.13;101498.72;5053363;28;20044;-73
2023/10/09 11:41:44;;;;;;;3.22;0.60;;;;;;;14.98;56.97;101480.44;5055718;28;20154;-73
2023/10/09 11:44:33;;;;;;;2.47;1.10;;;;;;;15.06;56.59;101501.88;5053097;28;20029;-73
2023/10/09 11:47:14;;;;;;;1.52;0.60;;;;;;;15.09;56.59;101500.63;5069849;28;20542;-72
2023/10/09 11:52:56;;;;;;;1.20;0.60;;;;;;;15.07;56.87;101505.44;5054289;28;20044;-73
2023/10/09 11:55:25;;;;;;;2.28;0.63;;;;;;;14.86;56.32;101482.09;5065635;28;20036;-73
2023/10/09 11:57:53;;;;;;;2.05;0.80;;;;;;;14.61;56.37;101434.03;5073309;28;20067;-73
2023/10/09 12:00:56;;;;;;;1.05;0.50;;;;;;;14.93;55.91;101478.38;5074101;28;20032;-73
2023/10/09 12:03:10;;;;;;;1.92;0.70;;;;;;;14.95;56.32;101487.09;5093509;28;20036;-73
2023/10/09 12:05:35;;;;;;;1.15;0.57;;;;;;;14.69;56.69;101465.47;5077994;28;20031;-72
2023/10/09 12:08:08;;;;;;;1.48;0.57;;;;;;;14.75;57.53;101470.03;5075063;28;20089;-73
2023/10/09 12:10:34;;;;;;;1.05;0.60;;;;;;;14.99;56.88;101476.66;5075733;28;20069;-73
2023/10/09 12:13:01;;;;;;;1.73;0.60;;;;;;;15.08;56.70;101486.25;5073885;28;20036;-73
2023/10/09 12:15:36;;;;;;;2.17;0.60;;;;;;;15.03;56.92;101489.59;5058116;28;20526;-73
2023/10/09 12:18:04;;;;;;;0.93;0.50;;;;;;;15.13;57.50;101489.16;5090427;28;20123;-73
2023/10/09 12:20:32;;;;;;;1.17;0.40;;;;;;;14.93;57.07;101494.63;5090842;28;20081;-73
2023/10/09 12:22:59;;;;;;;1.50;0.50;;;;;;;14.91;56.73;101488.56;5074548;28;20103;-73
2023/10/09 12:25:31;;;;;;;2.58;0.50;;;;;;;14.79;57.55;101488.38;5092404;28;20024;-73
2023/10/09 12:28:03;;;;;;;2.58;0.50;;;;;;;14.69;57.65;101479.00;5090773;28;20028;-73
2023/10/09 12:30:30;;;;;;;1.77;0.45;;;;;;;14.67;57.16;101462.97;5086901;28;20489;-73
2023/10/09 12:32:57;;;;;;;2.65;0.52;;;;;;;14.53;57.00;101455.88;5090916;28;20028;-73
2023/10/09 12:35:26;;;;;;;2.53;0.60;;;;;;;14.69;57.61;101465.47;5090689;28;20024;-72
2023/10/09 12:37:54;;;;;;;4.00;0.70;;;;;;;14.68;57.85;101480.06;5101032;28;20035;-72
2023/10/09 12:40:24;;;;;;;2.30;0.40;;;;;;;14.73;57.64;101472.13;5093710;28;20028;-73
2023/10/09 12:42:52;;;;;;;2.10;0.57;;;;;;;14.68;57.77;101480.88;5090473;28;20077;-73
2023/10/09 12:45:25;;;;;;;1.25;0.60;;;;;;;14.66;57.42;101476.72;5090649;28;20031;-73
2023/10/09 12:47:51;;;;;;;1.15;0.50;;;;;;;14.60;57.27;101458.59;5090194;28;20035;-73
2023/10/09 12:50:27;;;;;;;0.85;0.50;;;;;;;14.64;56.57;101484.25;5090277;28;20395;-72
2023/10/09 12:52:53;;;;;;;2.25;0.57;;;;;;;14.63;57.00;101487.97;5076596;28;20063;-71
2023/10/09 12:55:20;;;;;;;4.35;0.75;;;;;;;14.50;57.12;101484.25;5103926;28;20031;-72
2023/10/09 12:57:47;;;;;;;1.90;0.98;;;;;;;14.52;57.12;101487.56;5090523;28;20040;-73
2023/10/09 13:00:13;;;;;;;3.38;0.60;;;;;;;14.61;57.24;101481.94;5074552;28;20051;-73
2023/10/09 13:02:43;;;;;;;0.93;0.40;;;;;;;14.45;57.12;101486.69;5073717;28;20486;-73
2023/10/09 13:05:24;;;;;;;2.40;0.60;;;;;;;14.31;58.18;101469.63;5099380;28;20032;-73
2023/10/09 13:07:56;;;;;;;2.97;1.05;;;;;;;14.34;57.62;101490.03;5077891;28;20059;-73
2023/10/09 13:10:24;;;;;;;1.65;0.52;;;;;;;14.37;57.48;101486.91;5059670;28;20491;-72
2023/10/09 13:12:55;;;;;;;2.05;0.40;;;;;;;14.45;57.34;101480.44;5093641;28;20135;-74
2023/10/09 13:15:21;;;;;;;3.40;0.50;;;;;;;14.28;57.90;101447.53;5099123;28;20268;-73
2023/10/09 13:17:47;;;;;;;2.45;0.60;;;;;;;14.45;58.12;101478.56;5104699;28;20054;-72
2023/10/09 13:20:16;;;;;;;2.22;0.60;;;;;;;14.40;57.97;101472.94;5097313;28;20028;-73
2023/10/09 13:22:42;;;;;;;2.22;0.60;;;;;;;14.47;57.99;101473.78;5094618;28;20040;-73
2023/10/09 13:25:15;;;;;;;1.65;0.70;;;;;;;14.38;58.13;101480.44;5094192;28;20061;-73
2023/10/09 13:27:50;;;;;;;2.13;0.77;;;;;;;14.32;58.23;101481.28;5094425;28;20482;-72
2023/10/09 13:30:23;;;;;;;1.88;0.70;;;;;;;14.22;58.06;101486.25;5095205;28;20036;-72
2023/10/09 13:32:51;;;;;;;1.48;0.70;;;;;;;14.34;57.85;101490.88;5094197;28;20032;-72
2023/10/09 13:35:27;;;;;;;4.25;0.80;;;;;;;14.40;57.92;101489.19;5095040;28;20081;-72
2023/10/09 13:37:54;;;;;;;2.90;0.80;;;;;;;14.39;58.09;101490.22;5093730;28;20032;-72
2023/10/09 13:40:28;;;;;;;2.28;0.57;;;;;;;14.25;57.98;101451.50;5093659;28;20133;-72
2023/10/09 13:42:58;;;;;;;6.18;0.75;;;;;;;14.36;58.49;101477.09;5093708;28;20089;-72
2023/10/09 13:45:28;;;;;;;2.08;0.93;;;;;;;14.47;57.87;101476.50;5093734;28;20032;-72
2023/10/09 13:47:57;;;;;;;4.38;0.57;;;;;;;14.56;57.42;101452.75;5083631;28;20027;-71
2023/10/09 13:50:32;;;;;;;1.98;0.45;;;;;;;14.72;57.41;101467.75;5096388;28;20089;-73
2023/10/09 13:52:57;;;;;;;0.50;0.40;;;;;;;14.67;56.46;101459.41;5094491;28;20048;-72
2023/10/09 13:55:23;;;;;;;3.38;0.68;;;;;;;14.73;56.92;101467.53;5076939;28;20036;-72
2023/10/09 13:57:49;;;;;;;1.00;0.50;;;;;;;14.75;56.96;101453.78;5095093;28;20110;-72
2023/10/09 14:00:32;;;;;;;1.17;0.45;;;;;;;14.81;56.89;101471.91;5093706;28;20034;-72
2023/10/09 14:03:01;;;;;;;1.40;0.60;;;;;;;14.73;56.61;101483.78;5093757;28;20032;-73
2023/10/09 14:05:28;;;;;;;1.67;0.55;;;;;;;14.70;56.17;101486.09;5093644;28;20578;-73
2023/10/09 14:07:59;;;;;;;2.30;0.68;;;;;;;14.62;56.39;101470.88;5102804;28;20043;-72
2023/10/09 14:10:29;;;;;;;1.52;0.65;;;;;;;14.61;56.96;101487.38;5103297;28;20032;-73
2023/10/09 14:12:56;;;;;;;1.08;0.60;;;;;;;14.38;57.29;101455.25;5094802;28;20107;-73